createdAt,value
2023-02-01T00:02:31.177Z,101141.78
2023-02-01T00:06:34.330Z,101141.44
2023-02-01T00:10:37.487Z,101138.59
2023-02-01T00:14:41.844Z,101111.22
2023-02-01T00:18:44.974Z,101100.00
2023-02-01T00:22:48.005Z,101086.13
2023-02-01T00:26:51.046Z,101069.94
2023-02-01T00:30:59.461Z,101066.09
2023-02-01T00:35:02.555Z,101060.66
2023-02-01T00:39:05.607Z,101049.78
2023-02-01T00:43:08.653Z,101046.06
2023-02-01T00:47:13.049Z,101031.25
2023-02-01T00:51:18.402Z,101007.50
2023-02-01T00:55:21.399Z,101001.91
2023-02-01T00:59:24.431Z,101001.56
2023-02-01T01:03:30.491Z,101011.38
2023-02-01T01:07:33.550Z,101023.22
2023-02-01T01:11:38.758Z,101016.09
2023-02-01T01:15:43.290Z,101019.00
2023-02-01T01:19:47.983Z,101041.22
2023-02-01T01:23:51.050Z,101051.19
2023-02-01T01:27:54.179Z,101044.59
2023-02-01T01:31:57.217Z,101043.22
2023-02-01T01:36:01.688Z,101044.28
2023-02-01T01:40:05.347Z,101045.97
2023-02-01T01:44:28.989Z,101050.94
2023-02-01T01:48:32.920Z,101040.94
2023-02-01T01:52:39.492Z,101031.78
2023-02-01T01:56:43.537Z,101022.59
2023-02-01T02:00:48.168Z,101034.63
2023-02-01T02:04:51.366Z,101040.59
2023-02-01T02:08:55.797Z,101022.25
2023-02-01T02:12:58.898Z,101027.00
2023-02-01T02:17:12.099Z,101029.56
2023-02-01T02:21:19.996Z,101028.38
2023-02-01T02:25:49.537Z,101031.78
2023-02-01T02:30:17.309Z,101025.66
2023-02-01T02:34:27.563Z,101028.03
2023-02-01T02:38:37.853Z,101004.63
2023-02-01T02:43:08.296Z,101015.13
2023-02-01T02:47:28.565Z,101014.50
2023-02-01T02:51:57.170Z,101010.19
2023-02-01T02:56:19.230Z,101010.19
2023-02-01T03:00:43.750Z,101005.28
2023-02-01T03:04:46.962Z,101020.56
2023-02-01T03:08:55.054Z,101016.84
2023-02-01T03:13:04.216Z,101002.25
2023-02-01T03:17:13.956Z,100996.13
2023-02-01T03:21:23.781Z,100988.16
2023-02-01T03:25:32.848Z,100979.88
2023-02-01T03:29:40.167Z,100975.59
2023-02-01T03:33:43.831Z,100976.78
2023-02-01T03:37:47.997Z,100977.97
2023-02-01T03:41:55.245Z,100963.56
2023-02-01T03:46:04.144Z,100979.19
2023-02-01T03:50:11.974Z,100963.38
2023-02-01T03:54:17.868Z,100983.59
2023-02-01T03:58:23.822Z,100988.00
2023-02-01T04:02:26.921Z,100998.69
2023-02-01T04:06:30.298Z,100983.56
2023-02-01T04:10:37.466Z,100995.44
2023-02-01T04:14:41.839Z,100974.75
2023-02-01T04:18:44.856Z,100971.50
2023-02-01T04:22:47.908Z,100983.56
2023-02-01T04:26:50.977Z,100985.44
2023-02-01T04:30:55.451Z,100963.56
2023-02-01T04:34:58.645Z,100986.63
2023-02-01T04:39:01.768Z,100964.56
2023-02-01T04:43:05.039Z,100956.78
2023-02-01T04:47:10.546Z,100960.84
2023-02-01T04:51:14.027Z,100952.03
2023-02-01T04:55:17.106Z,100960.16
2023-02-01T04:59:20.262Z,100953.72
2023-02-01T05:03:24.637Z,100951.00
2023-02-01T05:07:27.669Z,100954.06
2023-02-01T05:11:48.282Z,100972.91
2023-02-01T05:15:52.453Z,100968.66
2023-02-01T05:19:56.924Z,100972.56
2023-02-01T05:24:14.123Z,100959.16
2023-02-01T05:28:17.226Z,100968.31
2023-02-01T05:32:22.598Z,100976.97
2023-02-01T05:36:27.761Z,100958.13
2023-02-01T05:40:30.814Z,100924.19
2023-02-01T05:44:34.060Z,100944.41
2023-02-01T05:48:37.095Z,100964.06
2023-02-01T05:52:41.535Z,100954.06
2023-02-01T05:56:44.623Z,100942.19
2023-02-01T06:00:47.672Z,100947.28
2023-02-01T06:04:50.704Z,100928.63
2023-02-01T06:08:55.221Z,100952.88
2023-02-01T06:12:58.230Z,100967.28
2023-02-01T06:17:01.668Z,100981.38
2023-02-01T06:21:05.095Z,100978.47
2023-02-01T06:25:11.626Z,100978.47
2023-02-01T06:29:14.907Z,100974.75
2023-02-01T06:33:17.942Z,100984.94
2023-02-01T06:37:21.072Z,100994.44
2023-02-01T06:41:28.409Z,100982.41
2023-02-01T06:45:33.170Z,100993.41
2023-02-01T06:49:36.199Z,100971.69
2023-02-01T06:53:39.280Z,100989.34
2023-02-01T06:57:43.636Z,100977.47
2023-02-01T07:01:46.814Z,100987.50
2023-02-01T07:05:49.854Z,100991.72
2023-02-01T07:09:52.985Z,101004.63
2023-02-01T07:13:58.725Z,101009.19
2023-02-01T07:18:01.906Z,101009.19
2023-02-01T07:22:04.958Z,100998.84
2023-02-01T07:26:09.857Z,101008.00
2023-02-01T07:30:15.155Z,100977.13
2023-02-01T07:34:18.243Z,100988.31
2023-02-01T07:38:22.774Z,100988.66
2023-02-01T07:42:25.899Z,100973.06
2023-02-01T07:46:30.446Z,100968.97
2023-02-01T07:50:33.632Z,100985.78
2023-02-01T07:54:38.325Z,100992.75
2023-02-01T07:58:41.634Z,100995.47
2023-02-01T08:02:46.127Z,100992.41
2023-02-01T08:06:49.163Z,101002.59
2023-02-01T08:10:52.364Z,100998.31
2023-02-01T08:14:57.493Z,101015.13
2023-02-01T08:19:02.067Z,101016.16
2023-02-01T08:23:05.655Z,101020.03
2023-02-01T08:27:08.859Z,101017.50
2023-02-01T08:31:15.803Z,101027.16
2023-02-01T08:35:21.225Z,101024.31
2023-02-01T08:39:26.884Z,101050.47
2023-02-01T08:43:29.949Z,101055.03
2023-02-01T08:47:33.554Z,101054.50
2023-02-01T08:51:38.482Z,101052.16
2023-02-01T08:55:41.566Z,101045.66
2023-02-01T08:59:45.494Z,101034.09
2023-02-01T09:03:48.538Z,101053.84
2023-02-01T09:07:52.967Z,101027.00
2023-02-01T09:11:56.061Z,101034.47
2023-02-01T09:16:00.848Z,101041.25
2023-02-01T09:20:05.121Z,101038.94
2023-02-01T09:24:12.295Z,101035.34
2023-02-01T09:28:15.962Z,101040.97
2023-02-01T09:32:19.644Z,101041.78
2023-02-01T09:36:22.827Z,101012.06
2023-02-01T09:40:27.653Z,101028.34
2023-02-01T09:44:47.782Z,101027.66
2023-02-01T09:48:54.928Z,101020.38
2023-02-01T09:53:04.390Z,101011.34
2023-02-01T09:57:11.791Z,101015.91
2023-02-01T10:01:19.922Z,101005.81
2023-02-01T10:05:41.455Z,100996.88
2023-02-01T10:09:55.171Z,100992.41
2023-02-01T10:14:11.022Z,100994.81
2023-02-01T10:18:29.606Z,100984.09
2023-02-01T10:23:10.384Z,100993.22
2023-02-01T10:27:15.137Z,100995.22
2023-02-01T10:31:20.656Z,100979.75
2023-02-01T10:35:29.417Z,100968.69
2023-02-01T10:39:32.494Z,100981.00
2023-02-01T10:43:35.596Z,100991.41
2023-02-01T10:47:40.208Z,100973.47
2023-02-01T10:51:49.630Z,100963.88
2023-02-01T10:55:53.874Z,100965.75
2023-02-01T10:59:57.472Z,100959.25
2023-02-01T11:04:03.499Z,100945.06
2023-02-01T11:08:06.756Z,100975.66
2023-02-01T11:12:27.398Z,100954.41
2023-02-01T11:16:35.065Z,100940.91
2023-02-01T11:20:42.530Z,100955.09
2023-02-01T11:24:47.822Z,100960.75
2023-02-01T11:28:56.545Z,100938.09
2023-02-01T11:33:01.221Z,100956.22
2023-02-01T11:37:06.208Z,100940.69
2023-02-01T11:41:16.789Z,100928.63
2023-02-01T11:45:22.494Z,100923.47
2023-02-01T11:49:27.898Z,100912.03
2023-02-01T11:53:49.854Z,100891.53
2023-02-01T11:58:05.216Z,100898.94
2023-02-01T12:02:28.502Z,100902.91
2023-02-01T12:06:45.815Z,100910.78
2023-02-01T12:11:03.543Z,100916.53
2023-02-01T12:15:25.100Z,100906.56
2023-02-01T12:19:43.640Z,100890.03
2023-02-01T12:23:59.162Z,100892.09
2023-02-01T12:28:29.302Z,100892.56
2023-02-01T12:32:49.990Z,100896.59
2023-02-01T12:37:04.912Z,100885.97
2023-02-01T12:41:21.855Z,100876.78
2023-02-01T12:45:33.550Z,100883.75
2023-02-01T12:49:48.284Z,100883.16
2023-02-01T12:53:54.736Z,100864.38
2023-02-01T12:58:04.144Z,100883.06
2023-02-01T13:02:17.684Z,100877.44
2023-02-01T13:06:27.329Z,100860.69
2023-02-01T13:10:37.378Z,100846.59
2023-02-01T13:14:44.796Z,100838.81
2023-02-01T13:18:52.373Z,100836.34
2023-02-01T13:23:01.428Z,100845.56
2023-02-01T13:27:05.414Z,100846.50
2023-02-01T13:31:30.812Z,100834.56
2023-02-01T13:36:05.948Z,100834.88
2023-02-01T13:40:25.319Z,100822.16
2023-02-01T13:44:33.185Z,100858.94
2023-02-01T13:48:47.913Z,100838.88
2023-02-01T13:52:57.330Z,100828.06
2023-02-01T13:57:01.655Z,100834.16
2023-02-01T14:01:37.126Z,100838.56
2023-02-01T14:06:19.746Z,100836.88
2023-02-01T14:10:51.662Z,100847.78
2023-02-01T14:15:35.374Z,100849.00
2023-02-01T14:19:39.272Z,100859.09
2023-02-01T14:23:44.519Z,100838.03
2023-02-01T14:27:48.950Z,100867.78
2023-02-01T14:32:03.672Z,100874.94
2023-02-01T14:36:11.435Z,100859.53
2023-02-01T14:40:22.136Z,100875.53
2023-02-01T14:44:30.309Z,100862.84
2023-02-01T14:48:48.620Z,100873.50
2023-02-01T14:53:06.651Z,100891.16
2023-02-01T14:57:18.150Z,100884.56
2023-02-01T15:01:26.846Z,100889.56
2023-02-01T15:05:33.995Z,100895.69
2023-02-01T15:09:39.929Z,100885.53
2023-02-01T15:13:52.792Z,100887.22
2023-02-01T15:17:59.782Z,100879.44
2023-02-01T15:22:03.372Z,100884.13
2023-02-01T15:26:06.503Z,100885.81
2023-02-01T15:30:11.228Z,100891.25
2023-02-01T15:34:15.973Z,100884.94
2023-02-01T15:38:36.271Z,100906.31
2023-02-01T15:42:51.986Z,100902.44
2023-02-01T15:46:55.384Z,100914.66
2023-02-01T15:50:59.853Z,100918.53
2023-02-01T15:55:07.397Z,100930.09
2023-02-01T15:59:17.958Z,100934.34
2023-02-01T16:03:34.851Z,100922.13
2023-02-01T16:07:40.509Z,100927.91
2023-02-01T16:11:53.952Z,100929.97
2023-02-01T16:15:57.033Z,100943.31
2023-02-01T16:20:00.114Z,100939.19
2023-02-01T16:24:06.972Z,100934.94
2023-02-01T16:28:10.352Z,100942.38
2023-02-01T16:32:19.596Z,100939.13
2023-02-01T16:36:22.996Z,100954.59
2023-02-01T16:40:27.417Z,100980.47
2023-02-01T16:44:30.469Z,100953.00
2023-02-01T16:48:36.237Z,100957.63
2023-02-01T16:52:40.657Z,100960.72
2023-02-01T16:56:47.681Z,100971.25
2023-02-01T17:00:51.923Z,100981.78
2023-02-01T17:04:55.152Z,100970.66
2023-02-01T17:08:59.952Z,100966.44
2023-02-01T17:13:04.552Z,100973.97
2023-02-01T17:17:07.834Z,100967.66
2023-02-01T17:21:12.195Z,100966.81
2023-02-01T17:25:18.429Z,100992.41
2023-02-01T17:29:24.362Z,100988.34
2023-02-01T17:33:35.772Z,100993.13
2023-02-01T17:37:41.081Z,101007.63
2023-02-01T17:41:48.441Z,101010.22
2023-02-01T17:45:58.438Z,101025.91
2023-02-01T17:50:03.850Z,101010.59
2023-02-01T17:54:11.019Z,101017.66
2023-02-01T17:58:17.747Z,101022.22
2023-02-01T18:02:26.922Z,101023.63
2023-02-01T18:06:38.694Z,101020.91
2023-02-01T18:10:43.136Z,101027.69
2023-02-01T18:14:47.533Z,101025.03
2023-02-01T18:18:54.354Z,100998.81
2023-02-01T18:23:03.815Z,101007.34
2023-02-01T18:27:10.515Z,101017.41
2023-02-01T18:31:24.344Z,101009.72
2023-02-01T18:35:32.269Z,101027.59
2023-02-01T18:39:37.650Z,101015.09
2023-02-01T18:43:42.807Z,101011.72
2023-02-01T18:47:46.681Z,101023.63
2023-02-01T18:51:53.770Z,101017.06
2023-02-01T18:55:59.690Z,101014.50
2023-02-01T19:00:03.889Z,101014.13
2023-02-01T19:04:23.212Z,101020.53
2023-02-01T19:08:31.220Z,101009.63
2023-02-01T19:12:36.143Z,101016.03
2023-02-01T19:16:41.412Z,100988.56
2023-02-01T19:20:47.442Z,100975.31
2023-02-01T19:24:54.728Z,100989.91
2023-02-01T19:29:00.736Z,101001.84
2023-02-01T19:33:04.868Z,101002.50
2023-02-01T19:37:09.793Z,100995.00
2023-02-01T19:41:16.528Z,100997.41
2023-02-01T19:45:20.524Z,100993.28
2023-02-01T19:49:24.087Z,100989.25
2023-02-01T19:53:28.376Z,101000.44
2023-02-01T19:57:34.065Z,100991.88
2023-02-01T20:01:37.444Z,101005.53
2023-02-01T20:05:40.661Z,100994.63
2023-02-01T20:09:44.898Z,100998.66
2023-02-01T20:13:49.635Z,101004.03
2023-02-01T20:17:52.916Z,101004.41
2023-02-01T20:21:56.449Z,100990.50
2023-02-01T20:26:03.857Z,101020.41
2023-02-01T20:30:11.337Z,101003.66
2023-02-01T20:34:16.087Z,101012.88
2023-02-01T20:38:19.905Z,101017.00
2023-02-01T20:42:23.982Z,101017.88
2023-02-01T20:46:28.911Z,101020.97
2023-02-01T20:50:33.157Z,101018.59
2023-02-01T20:54:39.139Z,101049.91
2023-02-01T20:58:44.411Z,101037.41
2023-02-01T21:02:50.551Z,101027.91
2023-02-01T21:06:55.500Z,101047.56
2023-02-01T21:11:03.519Z,101043.31
2023-02-01T21:15:10.168Z,101040.78
2023-02-01T21:19:16.420Z,101060.38
2023-02-01T21:23:20.607Z,101058.41
2023-02-01T21:27:24.812Z,101064.03
2023-02-01T21:31:30.142Z,101079.53
2023-02-01T21:35:36.599Z,101084.97
2023-02-01T21:39:41.086Z,101094.69
2023-02-01T21:43:46.269Z,101067.81
2023-02-01T21:47:52.636Z,101089.97
2023-02-01T21:51:58.990Z,101080.25
2023-02-01T21:56:03.136Z,101079.78
2023-02-01T22:00:14.092Z,101085.03
2023-02-01T22:04:19.333Z,101082.44
2023-02-01T22:08:24.368Z,101081.94
2023-02-01T22:12:29.382Z,101092.13
2023-02-01T22:16:34.487Z,101091.03
2023-02-01T22:20:39.763Z,101081.81
2023-02-01T22:24:45.570Z,101095.44
2023-02-01T22:28:50.888Z,101097.88
2023-02-01T22:32:56.332Z,101108.25
2023-02-01T22:37:01.848Z,101106.72
2023-02-01T22:41:09.159Z,101115.44
2023-02-01T22:45:13.818Z,101120.22
2023-02-01T22:49:19.154Z,101119.38
2023-02-01T22:53:22.712Z,101116.84
2023-02-01T22:57:29.451Z,101125.75
2023-02-01T23:01:33.604Z,101137.66
2023-02-01T23:05:38.411Z,101146.00
2023-02-01T23:09:44.114Z,101144.66
2023-02-01T23:13:51.112Z,101147.38
2023-02-01T23:17:54.515Z,101166.09
2023-02-01T23:21:57.580Z,101126.25
2023-02-01T23:26:02.410Z,101142.97
2023-02-01T23:30:10.182Z,101154.53
2023-02-01T23:34:14.984Z,101157.66
2023-02-01T23:38:20.051Z,101150.50
2023-02-01T23:42:23.683Z,101144.56
2023-02-01T23:46:32.509Z,101163.81
2023-02-01T23:50:41.085Z,101183.56
2023-02-01T23:54:47.758Z,101171.91
2023-02-01T23:58:53.284Z,101177.88
